15MA weather

Public forecast

Using degrees Fahrenheit for public forecast. Weather courtesy of forecast.io.

Closest aviation weather report (METAR) to Canapitsit Airport

Closest report is Martha's Vineyard Airport, 13.4 nm (24.8 km) E. Retrieved 2020/08/14 08:53 UTC (1 hour ago):

KMVY 140853Z AUTO 00000KT 10SM CLR 21/19 A3003 RMK AO2 SLP168 T02060194 55005

Closest aviation forecast (TAF) to Canapitsit Airport

Closest forecast is Cape Cod Coast Guard Air Station, 22.5 nm (41.6 km) NE. Retrieved 2020/08/14 06:42 UTC (3 hours ago):

TAF KFMH 140540Z 1406/1506 00000KT P6SM SKC FM140800 01003KT P6SM SCT200 FM141200 04005KT P6SM BKN200